CheckWX is a tool to help pilots better visualize weather data.  It is not intended as a substitute for an official pre-flight weather briefing.

06:33:03 UTC

KWRI TAF
Mc Guire Field (Joint Base Mc Guire Dix Lakehurst) Airport
Wrightstown, New Jersey, USA
TAF KWRI 240200Z 2402/2508 VRB03KT 9999 FEW180 OVC230 QNH3035INS BECMG 2407/2408 06003KT 9999 BKN150 QNH3032INS BECMG 2413/2414 08006KT 9999 SCT140 SCT250 QNH3028INS BECMG 2420/2421 09006KT 9999 SCT060 BKN140 QNH3019INS BECMG 2506/2507 06011KT 9999 SCT025 OVC060 QNH3015INS TX10/2419Z TNM03/2411Z

Jan-24@
02:00 UTC

Jan-24 @ 02:00 UTC

Jan-24@
07:00 UTC

Jan-24 @ 07:00 UTC

TAF KWRI 240200Z 2402/2508 VRB03KT 9999 FEW180 OVC230 QNH3035INS
Wind
  • Variable at 3 KTS
Cloud Levels
  • Few at 18,000' AGL
  • Overcast at 23,000' AGL

Jan-24@
07:00 UTC

Jan-24 @ 07:00 UTC

Jan-24@
13:00 UTC

Jan-24 @ 13:00 UTC

BECMG 2407/2408 06003KT 9999 BKN150 QNH3032INS

Becoming

Becoming Conditions expected by Fri, Jan 24, 2020 @ 08:00 UTC

Wind
  • 060° at 3 KTS
Cloud Levels
  • Broken at 15,000' AGL

Jan-24@
13:00 UTC

Jan-24 @ 13:00 UTC

Jan-24@
20:00 UTC

Jan-24 @ 20:00 UTC

BECMG 2413/2414 08006KT 9999 SCT140 SCT250 QNH3028INS

Becoming

Becoming Conditions expected by Fri, Jan 24, 2020 @ 14:00 UTC

Wind
  • 080° at 6 KTS
Cloud Levels
  • Scattered at 14,000' AGL
  • Scattered at 25,000' AGL

Jan-24@
20:00 UTC

Jan-24 @ 20:00 UTC

Jan-25@
06:00 UTC

Jan-25 @ 06:00 UTC

BECMG 2420/2421 09006KT 9999 SCT060 BKN140 QNH3019INS

Becoming

Becoming Conditions expected by Fri, Jan 24, 2020 @ 21:00 UTC

Wind
  • 090° at 6 KTS
Cloud Levels
  • Scattered at 6,000' AGL
  • Broken at 14,000' AGL

Jan-25@
06:00 UTC

Jan-25 @ 06:00 UTC

Jan-25@
08:00 UTC

Jan-25 @ 08:00 UTC

BECMG 2506/2507 06011KT 9999 SCT025 OVC060 QNH3015INS TX10/2419Z TNM03/2411Z

Becoming

Becoming Conditions expected by Sat, Jan 25, 2020 @ 07:00 UTC

Wind
  • 060° at 11 KTS
Cloud Levels
  • Scattered at 2,500' AGL
  • Overcast at 6,000' AGL